Last 7 Days

Williams 2 (WL2)

Hourly Data | America/Los_Angeles
as of 2/19/19 12:41 PM PST
Date Time Temp (°F) RH (%) Dew Pt (°F) Wind Spd (mph) Wind Dir (°) Wind Gust (mph) Wind Gst Dir (°) Latest Rain (In) Solar Rad Tot Hr (Cal/cm2) Daily Rain (In) Daily Min Temp (°F) Daily Max Temp (°F) Day
2/19/19 1100 51.6 40 28.3 5.4 NNW | 336 11.0 N | 9 0.00 50 0.00 29.6 53.0 2/19/19
2/19/19 1000 48.1 45 27.6 9.0 N | 350 16.7 NNW | 338 0.00 38 0.00 29.6 49.9 2/19/19
2/19/19 0900 44.7 48 26.1 7.8 NNW | 340 13.5 N | 10 0.00 23 0.00 29.6 46.8 2/19/19
2/19/19 0800 39.7 55 24.8 6.4 NNW | 339 10.6 NNW | 338 0.00 6 0.00 29.6 42.6 2/19/19
2/19/19 0700 38.9 56 24.5 7.8 NNW | 340 13.2 NNW | 330 0.00 0 0.00 29.6 39.8 2/19/19
2/19/19 0600 37.7 61 25.5 5.6 NNW | 333 9.1 NNW | 336 0.00 0 0.00 29.6 38.9 2/19/19
2/19/19 0500 31.6 81 26.4 1.7 WNW | 298 5.8 NW | 306 0.00 0 0.00 29.6 37.2 2/19/19
2/19/19 0400 31.8 81 26.7 1.7 NNW | 338 6.4 NNW | 341 0.00 0 0.00 30.1 37.2 2/19/19
2/19/19 0300 33.1 79 27.3 2.7 NNW | 340 6.4 N | 351 0.00 0 0.00 32.6 37.2 2/19/19
2/19/19 0200 34.8 75 27.7 4.6 NNW | 346 7.4 NNW | 332 0.00 0 0.00 33.0 37.2 2/19/19
2/19/19 0100 34.2 77 27.6 2.6 N | 350 7.1 NNW | 328 0.00 0 0.00 33.1 35.6 2/19/19
2/19/19 0000 35.1 74 27.9 5.4 NNW | 338 8.6 NNW | 345 0.00 0 0.01 33.1 54.4 2/18/19
2/18/19 2300 35.6 73 28.0 5.3 NNW | 339 10.6 NNW | 332 0.00 0 0.01 33.1 54.4 2/18/19
2/18/19 2200 36.9 70 28.0 6.8 NNW | 338 10.3 NNW | 342 0.00 0 0.01 33.1 54.4 2/18/19
2/18/19 2100 35.4 78 29.1 2.0 NNW | 337 7.4 NW | 319 0.00 0 0.01 33.1 54.4 2/18/19
2/18/19 2000 37.2 73 29.4 0.5 N | 356 2.9 WNW | 298 0.00 0 0.01 33.1 54.4 2/18/19
2/18/19 1900 42.5 59 28.8 2.6 N | 4 5.6 NNW | 344 0.00 0 0.01 33.1 54.4 2/18/19
2/18/19 1800 49.0 42 26.6 5.1 NNW | 345 12.8 N | 10 0.00 3 0.01 33.1 54.4 2/18/19
2/18/19 1700 52.7 34 24.9 8.0 NNW | 333 19.0 NNW | 334 0.00 20 0.01 33.1 54.4 2/18/19
2/18/19 1600 53.1 34 25.5 11.9 NNW | 342 19.0 NW | 317 0.00 35 0.01 33.1 54.4 2/18/19
2/18/19 1500 53.6 35 26.6 11.8 NNW | 346 19.8 N | 352 0.00 48 0.01 33.1 54.4 2/18/19
2/18/19 1400 53.6 35 26.8 9.9 NNW | 334 18.2 N | 355 0.00 56 0.01 33.1 54.4 2/18/19
2/18/19 1300 52.6 37 27.1 10.4 NNW | 341 21.9 NNW | 343 0.00 59 0.01 33.1 53.5 2/18/19
2/18/19 1200 50.8 39 26.6 11.6 NNW | 337 18.2 NW | 306 0.00 57 0.01 33.1 52.1 2/18/19
2/18/19 1100 49.2 40 25.9 13.4 NNW | 344 22.4 NNW | 340 0.00 50 0.01 33.1 50.3 2/18/19
2/18/19 1000 47.5 42 25.4 12.9 NNW | 347 22.9 NNW | 340 0.01 38 0.01 33.1 48.5 2/18/19
2/18/19 0900 44.9 46 25.1 11.6 NNW | 346 23.4 NW | 316 0.00 23 0.00 33.1 46.4 2/18/19
2/18/19 0800 41.1 51 24.2 7.8 N | 354 12.8 NW | 324 0.00 6 0.00 33.1 43.1 2/18/19
2/18/19 0700 40.4 51 23.7 6.7 N | 357 11.6 N | 0 0.00 0 0.00 33.1 42.1 2/18/19
2/18/19 0600 40.8 52 24.6 7.9 NNW | 344 14.5 NNW | 343 0.00 0 0.00 33.1 42.1 2/18/19
2/18/19 0500 41.3 52 24.8 9.9 N | 353 17.8 N | 350 0.00 0 0.00 33.1 41.9 2/18/19
2/18/19 0400 37.1 65 26.0 4.5 NW | 321 16.7 NNW | 330 0.00 0 0.00 33.1 41.5 2/18/19
2/18/19 0300 38.3 62 26.5 5.1 NNW | 345 12.0 NW | 320 0.00 0 0.00 34.3 40.8 2/18/19
2/18/19 0200 36.5 71 28.0 3.8 NNW | 332 6.9 N | 1 0.00 0 0.00 34.3 40.8 2/18/19
2/18/19 0100 38.7 67 28.6 4.9 NNW | 343 10.1 N | 354 0.00 0 0.00 35.3 40.8 2/18/19
2/18/19 0000 37.3 76 29.9 5.2 NNW | 348 12.6 NNW | 347 0.00 0 0.15 31.2 51.7 2/17/19
2/17/19 2300 33.8 91 31.4 2.8 NW | 307 6.9 WNW | 298 0.00 0 0.15 31.3 51.7 2/17/19
2/17/19 2200 35.8 89 32.8 5.2 NNW | 332 9.5 NNW | 332 0.00 0 0.15 33.1 51.7 2/17/19
2/17/19 2100 38.9 81 33.5 4.9 N | 356 14.8 NNE | 32 0.00 0 0.15 33.1 51.7 2/17/19
2/17/19 2000 35.9 93 34.1 6.1 NNW | 336 9.8 NNW | 328 0.00 0 0.15 33.1 51.7 2/17/19
2/17/19 1900 37.6 92 35.4 6.3 N | 349 9.6 NNW | 346 0.00 0 0.15 33.1 51.7 2/17/19
2/17/19 1800 40.3 86 36.4 3.6 NNE | 20 8.0 ENE | 58 0.00 1 0.15 33.1 51.7 2/17/19
2/17/19 1700 43.9 81 38.4 3.1 N | 2 10.0 NNW | 345 0.01 5 0.15 33.1 51.7 2/17/19
2/17/19 1600 45.8 78 39.3 1.9 NNW | 346 5.3 NNW | 330 0.00 12 0.14 33.1 51.7 2/17/19
2/17/19 1500 47.2 70 37.9 2.7 E | 90 9.6 ENE | 58 0.09 13 0.14 33.1 51.7 2/17/19
2/17/19 1400 49.1 64 37.4 5.3 ESE | 118 11.6 SE | 132 0.00 23 0.05 33.1 51.7 2/17/19
2/17/19 1300 49.9 57 35.1 2.7 WSW | 253 8.6 ESE | 116 0.00 28 0.05 33.1 51.7 2/17/19
2/17/19 1200 49.7 57 35.2 4.1 NNW | 337 9.1 N | 349 0.00 59 0.05 33.1 51.7 2/17/19
2/17/19 1100 46.9 66 36.2 4.4 NNW | 338 9.6 NNE | 12 0.00 48 0.05 33.1 48.2 2/17/19
2/17/19 1000 44.4 73 36.2 2.6 NNW | 346 8.6 NNW | 340 0.00 36 0.05 33.1 45.6 2/17/19
2/17/19 0900 40.5 81 35.2 4.0 NW | 322 8.0 NW | 326 0.00 21 0.05 33.1 42.5 2/17/19
2/17/19 0800 35.7 93 33.8 0.9 NNW | 334 4.8 NNE | 26 0.00 4 0.05 33.1 42.4 2/17/19
2/17/19 0700 34.7 95 33.4 1.7 NNW | 340 4.4 NW | 304 0.00 0 0.05 33.1 42.4 2/17/19
2/17/19 0600 35.6 94 34.1 2.1 NE | 35 4.9 N | 9 0.00 0 0.05 34.3 42.4 2/17/19
2/17/19 0500 36.9 92 34.7 0.9 NNE | 33 3.6 NNW | 342 0.00 0 0.05 35.4 42.4 2/17/19
2/17/19 0400 39.0 88 35.7 4.0 ENE | 69 13.5 NNW | 334 0.04 0 0.05 38.3 42.4 2/17/19
2/17/19 0300 40.0 80 34.5 1.8 NE | 56 8.4 NNW | 340 0.01 0 0.01 38.9 42.4 2/17/19
2/17/19 0200 40.7 76 33.8 2.4 WSW | 249 7.4 WNW | 299 0.00 0 0.00 39.6 42.4 2/17/19
2/17/19 0100 41.5 72 33.2 6.1 NNW | 336 17.3 N | 1 0.00 0 0.00 40.3 42.4 2/17/19
2/17/19 0000 41.0 74 33.4 8.4 N | 357 14.8 NNE | 24 0.00 0 0.09 33.9 52.8 2/16/19
2/16/19 2300 40.7 76 33.7 7.9 NNW | 337 19.2 NW | 325 0.00 0 0.09 33.9 52.8 2/16/19
2/16/19 2200 41.3 74 33.8 6.8 NNW | 330 12.3 NNW | 336 0.00 0 0.09 33.9 52.8 2/16/19
2/16/19 2100 42.8 72 34.6 10.2 NW | 322 18.8 NNW | 328 0.00 0 0.09 33.9 52.8 2/16/19
2/16/19 2000 43.7 72 35.3 9.9 NNW | 327 18.8 NW | 318 0.00 0 0.09 33.9 52.8 2/16/19
2/16/19 1900 43.8 72 35.4 4.8 NW | 320 9.3 NW | 313 0.00 0 0.09 33.9 52.8 2/16/19
2/16/19 1800 46.3 67 36.0 4.7 NW | 319 12.1 NNW | 340 0.00 1 0.09 33.9 52.8 2/16/19
2/16/19 1700 49.0 65 37.7 6.2 WNW | 289 13.8 N | 352 0.00 13 0.09 33.9 52.8 2/16/19
2/16/19 1600 48.7 67 38.4 7.5 WNW | 286 16.3 WNW | 282 0.00 34 0.09 33.9 52.8 2/16/19
2/16/19 1500 47.3 74 39.6 6.6 W | 276 14.5 WSW | 248 0.01 30 0.09 33.9 52.8 2/16/19
2/16/19 1400 47.4 74 39.3 7.2 NW | 306 18.8 NNW | 329 0.03 29 0.08 33.9 52.8 2/16/19
2/16/19 1300 51.6 60 38.1 9.2 WNW | 287 17.0 NW | 322 0.00 53 0.05 33.9 52.8 2/16/19
2/16/19 1200 50.2 63 38.0 9.4 NW | 304 21.0 NNE | 24 0.00 56 0.05 33.9 51.7 2/16/19
2/16/19 1100 48.1 71 39.1 7.0 NW | 322 15.8 NW | 313 0.00 47 0.05 33.9 49.6 2/16/19
2/16/19 1000 44.6 78 38.1 6.5 NW | 319 14.0 WNW | 302 0.00 24 0.05 33.9 46.9 2/16/19
2/16/19 0900 41.8 87 38.2 3.3 NNW | 336 10.6 WNW | 284 0.00 13 0.05 33.9 43.3 2/16/19
2/16/19 0800 37.2 97 36.3 1.9 ENE | 77 5.9 ENE | 76 0.00 5 0.05 33.9 40.1 2/16/19
2/16/19 0700 35.2 97 34.5 1.8 NNE | 24 6.1 NW | 322 0.00 0 0.05 33.9 40.1 2/16/19
2/16/19 0600 36.0 97 35.3 1.3 NE | 42 5.1 ENE | 68 0.00 0 0.05 35.0 40.1 2/16/19
2/16/19 0500 36.7 97 35.9 1.2 N | 356 4.1 N | 7 0.00 0 0.05 36.2 40.1 2/16/19
2/16/19 0400 37.7 96 36.7 1.8 NNW | 347 5.6 N | 354 0.00 0 0.05 36.8 40.1 2/16/19
2/16/19 0300 38.6 96 37.5 1.7 NNW | 346 5.1 NNW | 334 0.00 0 0.05 38.0 40.1 2/16/19
2/16/19 0200 39.7 95 38.5 0.5 NNW | 342 3.6 NNE | 23 0.01 0 0.05 39.2 40.1 2/16/19
2/16/19 0100 39.7 95 38.3 1.9 N | 0 5.4 NNW | 337 0.04 0 0.04 39.2 40.1 2/16/19
2/16/19 0000 39.9 93 38.2 2.1 NE | 45 7.8 NNW | 344 0.04 0 0.41 36.8 51.7 2/15/19
2/15/19 2300 37.9 96 36.8 3.5 NNW | 341 10.1 NW | 308 0.05 0 0.37 36.8 51.7 2/15/19
2/15/19 2200 37.3 95 36.0 1.6 N | 352 6.6 NNW | 327 0.01 0 0.32 36.8 51.7 2/15/19
2/15/19 2100 38.4 94 36.7 1.0 NNW | 345 6.3 NNW | 341 0.00 0 0.31 37.4 51.7 2/15/19
2/15/19 2000 40.6 90 38.0 1.0 ENE | 70 3.3 NNE | 26 0.00 0 0.31 38.5 51.7 2/15/19
2/15/19 1900 42.8 89 39.7 1.4 SSE | 161 5.9 WNW | 302 0.01 0 0.31 40.5 51.7 2/15/19
2/15/19 1800 44.4 82 39.3 3.8 NE | 38 8.3 NE | 39 0.01 2 0.30 40.5 51.7 2/15/19
2/15/19 1700 46.0 76 38.7 2.5 S | 183 8.4 S | 169 0.00 8 0.29 40.5 51.7 2/15/19
2/15/19 1600 46.3 75 38.8 4.1 SSW | 211 12.1 WSW | 257 0.00 18 0.29 40.5 51.7 2/15/19
2/15/19 1500 49.2 68 39.0 6.3 SW | 222 20.7 WSW | 239 0.01 30 0.29 40.5 51.7 2/15/19
2/15/19 1400 48.0 71 39.0 5.4 WNW | 287 11.6 SW | 214 0.00 54 0.28 40.5 50.6 2/15/19
2/15/19 1300 44.3 81 38.7 8.0 W | 279 22.4 SW | 230 0.03 25 0.28 40.5 48.2 2/15/19
2/15/19 1200 43.4 82 38.4 8.5 WNW | 291 18.8 W | 274 0.08 20 0.25 40.5 48.2 2/15/19
2/15/19 1100 43.8 80 38.1 5.3 SSW | 204 11.6 WSW | 244 0.03 24 0.17 41.6 48.2 2/15/19
2/15/19 1000 46.1 75 38.6 6.0 WSW | 246 19.8 W | 279 0.02 14 0.14 41.6 48.2 2/15/19
2/15/19 0900 45.9 75 38.2 4.4 SW | 232 11.6 SSW | 206 0.00 14 0.12 41.6 48.0 2/15/19
2/15/19 0800 43.9 80 38.0 3.3 SW | 232 9.5 WNW | 291 0.00 3 0.12 41.6 45.5 2/15/19
2/15/19 0700 42.6 78 36.1 3.3 W | 274 8.4 NNW | 346 0.00 0 0.12 41.6 44.9 2/15/19
2/15/19 0600 43.9 76 37.0 5.4 WSW | 254 14.8 W | 259 0.00 0 0.12 41.8 44.9 2/15/19
2/15/19 0500 43.4 80 37.7 4.9 WSW | 244 12.1 WSW | 241 0.00 0 0.12 41.8 44.9 2/15/19
2/15/19 0400 42.8 82 37.6 5.6 WSW | 256 12.1 WSW | 237 0.00 0 0.12 41.8 44.9 2/15/19
2/15/19 0300 43.6 81 38.2 7.2 W | 267 21.5 W | 280 0.08 0 0.12 42.3 44.9 2/15/19
2/15/19 0200 44.3 80 38.3 7.0 WSW | 249 19.2 WNW | 287 0.02 0 0.04 43.4 44.9 2/15/19
2/15/19 0100 44.3 84 39.8 5.8 WSW | 257 15.2 WNW | 297 0.02 0 0.02 43.8 44.8 2/15/19
2/15/19 0000 44.7 84 40.2 8.0 W | 267 18.8 WSW | 238 0.03 0 1.70 43.9 53.8 2/14/19
2/14/19 2300 45.1 90 42.3 5.7 WSW | 237 13.6 W | 269 0.08 0 1.67 44.2 53.8 2/14/19
2/14/19 2200 46.9 83 41.9 6.9 SSW | 210 19.5 SSW | 195 0.19 0 1.59 44.2 53.8 2/14/19
2/14/19 2100 48.7 75 41.0 7.6 SSW | 192 15.2 S | 184 0.00 0 1.40 44.2 53.8 2/14/19
2/14/19 2000 47.0 77 40.1 4.7 S | 185 14.8 SSW | 193 0.00 0 1.40 44.2 53.8 2/14/19
2/14/19 1900 48.2 75 40.6 5.8 SSW | 212 11.6 SSW | 200 0.00 0 1.40 44.2 53.8 2/14/19
2/14/19 1800 49.4 73 41.0 6.0 SSW | 213 14.0 SSW | 197 0.00 2 1.40 44.2 53.8 2/14/19
2/14/19 1700 51.2 69 41.5 5.1 WSW | 243 15.5 W | 262 0.00 13 1.40 44.2 53.8 2/14/19
2/14/19 1600 51.5 72 42.8 8.3 WSW | 257 22.5 W | 263 0.00 24 1.40 44.2 53.8 2/14/19
2/14/19 1500 52.3 72 43.6 7.8 W | 263 17.2 WNW | 283 0.00 35 1.40 44.2 53.8 2/14/19
2/14/19 1400 50.6 79 44.5 9.5 WSW | 255 20.0 W | 266 0.01 32 1.40 44.2 51.8 2/14/19
2/14/19 1300 48.2 84 43.7 6.0 WSW | 250 13.5 WNW | 284 0.00 35 1.39 44.2 50.5 2/14/19
2/14/19 1200 46.3 85 42.2 7.8 W | 275 19.2 SW | 229 0.13 7 1.39 44.2 48.9 2/14/19
2/14/19 1100 47.0 88 43.5 8.0 WSW | 250 16.7 NNW | 330 0.08 12 1.26 44.2 48.9 2/14/19
2/14/19 1000 48.0 88 44.5 8.2 SW | 220 16.5 SSW | 211 0.05 15 1.18 44.2 48.9 2/14/19
2/14/19 0900 47.4 90 44.8 9.2 SW | 221 18.3 SW | 218 0.00 13 1.13 44.2 48.0 2/14/19
2/14/19 0800 46.6 87 43.0 8.1 WSW | 244 15.7 W | 271 0.00 3 1.13 44.2 47.9 2/14/19
2/14/19 0700 46.0 89 42.9 7.9 WSW | 250 24.0 W | 278 0.03 0 1.13 44.2 47.0 2/14/19
2/14/19 0600 46.0 94 44.4 10.5 S | 182 22.0 SW | 218 0.02 0 1.10 44.2 46.8 2/14/19
2/14/19 0500 45.2 96 44.2 7.0 SE | 134 11.3 SSE | 152 0.06 0 1.08 44.2 46.8 2/14/19
2/14/19 0400 45.1 97 44.3 7.4 SE | 142 15.7 SSE | 153 0.05 0 1.02 44.2 46.8 2/14/19
2/14/19 0300 45.3 98 44.6 3.1 SE | 141 8.4 SE | 127 0.32 0 0.97 44.7 46.8 2/14/19
2/14/19 0200 45.5 98 45.0 4.4 ESE | 114 13.5 SE | 138 0.49 0 0.65 45.0 46.8 2/14/19
2/14/19 0100 46.3 98 45.7 1.6 SE | 146 4.9 ESE | 122 0.16 0 0.16 45.9 46.8 2/14/19
2/14/19 0000 47.1 98 46.6 3.0 S | 172 8.1 SSE | 168 0.14 0 2.96 40.0 48.1 2/13/19
2/13/19 2300 46.8 98 46.2 0.6 N | 9 3.3 N | 354 0.09 0 2.82 40.0 47.8 2/13/19
2/13/19 2200 47.0 98 46.4 0.5 NNE | 19 2.9 N | 351 0.04 0 2.73 40.0 47.8 2/13/19
2/13/19 2100 47.3 98 46.7 0.9 ESE | 106 4.9 ESE | 102 0.14 0 2.69 40.0 47.8 2/13/19
2/13/19 2000 47.0 98 46.4 0.7 ESE | 114 4.3 SW | 216 0.30 0 2.55 40.0 47.8 2/13/19
2/13/19 1900 46.6 98 45.9 1.7 NNW | 347 4.4 NNW | 343 0.19 0 2.25 40.0 47.3 2/13/19
2/13/19 1800 46.6 97 45.9 2.0 NNW | 340 4.4 NNW | 346 0.08 0 2.06 40.0 47.3 2/13/19
2/13/19 1700 46.9 97 46.1 2.0 NNW | 338 4.1 NNW | 338 0.04 2 1.98 40.0 47.3 2/13/19
2/13/19 1600 46.8 97 45.9 1.3 N | 355 3.3 N | 349 0.10 3 1.94 40.0 47.3 2/13/19
2/13/19 1500 46.2 96 45.1 1.4 NW | 319 4.3 NW | 310 0.12 4 1.84 40.0 46.7 2/13/19
2/13/19 1400 45.5 95 44.0 1.8 W | 280 5.1 WSW | 256 0.10 4 1.72 40.0 46.1 2/13/19
2/13/19 1300 44.6 93 42.7 2.2 SSE | 168 8.3 SE | 131 0.03 2 1.62 40.0 45.1 2/13/19
2/13/19 1200 44.0 95 42.6 3.9 SSE | 156 9.5 SE | 136 0.10 2 1.59 40.0 44.4 2/13/19
2/13/19 1100 43.7 94 42.2 5.9 SSE | 161 13.3 SE | 131 0.08 3 1.49 40.0 44.0 2/13/19
2/13/19 1000 43.2 94 41.7 5.6 SSE | 151 13.0 SE | 135 0.19 2 1.41 40.0 43.7 2/13/19
2/13/19 0900 42.8 92 40.7 6.5 SE | 146 16.0 ESE | 116 0.27 1 1.22 40.0 43.3 2/13/19
2/13/19 0800 42.9 92 40.7 3.4 S | 191 10.5 SSE | 155 0.20 0 0.95 40.0 43.3 2/13/19
2/13/19 0700 42.3 96 41.2 3.4 NNW | 338 11.1 N | 350 0.18 0 0.75 40.0 42.8 2/13/19
2/13/19 0600 41.9 96 40.9 7.6 NNW | 342 14.8 NNW | 331 0.26 0 0.57 40.0 42.3 2/13/19
2/13/19 0500 41.3 96 40.3 4.4 NNW | 334 9.0 NNW | 335 0.13 0 0.31 40.0 41.8 2/13/19
2/13/19 0400 41.4 95 40.2 1.5 NNW | 342 4.3 NW | 326 0.06 0 0.18 40.0 41.8 2/13/19
2/13/19 0300 41.1 95 39.7 1.4 NNW | 336 5.4 NNE | 20 0.03 0 0.12 40.0 41.6 2/13/19
2/13/19 0200 41.3 94 39.6 1.8 SW | 225 5.9 SSW | 209 0.05 0 0.09 40.0 41.6 2/13/19
2/13/19 0100 40.8 95 39.4 2.2 S | 190 6.4 SSW | 198 0.04 0 0.04 40.0 41.6 2/13/19
2/13/19 0000 40.2 94 38.7 0.3 NNW | 342 2.2 W | 281 0.10 0 0.27 33.1 44.8 2/12/19
2/12/19 2300 40.6 92 38.4 0.7 N | 356 3.3 E | 83 0.11 0 0.17 33.1 44.8 2/12/19
2/12/19 2200 42.0 84 37.3 1.8 NNE | 25 5.4 ESE | 110 0.06 0 0.06 33.1 44.8 2/12/19
2/12/19 2100 42.2 80 36.6 2.7 ESE | 121 9.1 S | 169 0.00 0 0.00 33.1 44.8 2/12/19
2/12/19 2000 41.8 81 36.4 3.5 NNW | 343 10.5 N | 3 0.00 0 0.00 33.1 44.8 2/12/19
2/12/19 1900 41.8 81 36.4 1.8 NNE | 12 5.9 N | 351 0.00 0 0.00 33.1 44.8 2/12/19
2/12/19 1800 43.0 76 36.0 1.0 NE | 54 3.6 ENE | 77 0.00 1 0.00 33.1 44.8 2/12/19
2/12/19 1700 44.2 71 35.2 3.4 SSW | 193 8.8 SSW | 199 0.00 2 0.00 33.1 44.8 2/12/19
2/12/19 1600 43.8 73 35.6 2.4 SSW | 202 8.8 W | 263 0.00 5 0.00 33.1 44.4 2/12/19
2/12/19 1500 43.4 76 36.1 2.6 SW | 236 6.3 SSW | 203 0.00 8 0.00 33.1 43.8 2/12/19
2/12/19 1400 42.7 77 36.0 3.2 SSW | 212 7.6 N | 5 0.00 10 0.00 33.1 43.4 2/12/19
2/12/19 1300 42.4 76 35.3 1.9 SW | 231 4.3 WSW | 252 0.00 8 0.00 33.1 42.8 2/12/19
Tip: Bookmark this page for easy future reference